createdAt,value
2023-05-09T00:00:47.652Z,73.61
2023-05-09T00:01:51.941Z,73.64
2023-05-09T00:02:59.198Z,73.70
2023-05-09T00:04:02.502Z,73.67
2023-05-09T00:05:06.830Z,73.72
2023-05-09T00:06:11.089Z,73.80
2023-05-09T00:07:15.330Z,73.78
2023-05-09T00:08:19.706Z,73.94
2023-05-09T00:09:24.024Z,73.86
2023-05-09T00:10:28.156Z,73.75
2023-05-09T00:11:32.440Z,73.92
2023-05-09T00:12:36.760Z,73.97
2023-05-09T00:13:41.019Z,74.00
2023-05-09T00:14:45.337Z,74.11
2023-05-09T00:15:55.570Z,74.21
2023-05-09T00:16:58.442Z,74.32
2023-05-09T00:18:02.714Z,74.63
2023-05-09T00:19:06.873Z,74.78
2023-05-09T00:20:11.132Z,74.84
2023-05-09T00:21:15.422Z,75.00
2023-05-09T00:22:19.663Z,75.07
2023-05-09T00:23:23.936Z,75.26
2023-05-09T00:24:28.355Z,75.34
2023-05-09T00:25:32.457Z,75.23
2023-05-09T00:26:36.824Z,75.15
2023-05-09T00:27:41.063Z,75.10
2023-05-09T00:28:45.298Z,74.95
2023-05-09T00:29:49.584Z,74.87
2023-05-09T00:30:53.756Z,74.88
2023-05-09T00:31:58.167Z,74.87
2023-05-09T00:33:02.426Z,74.77
2023-05-09T00:34:06.618Z,74.83
2023-05-09T00:35:10.959Z,75.05
2023-05-09T00:36:15.036Z,75.18
2023-05-09T00:37:19.376Z,75.24
2023-05-09T00:38:23.616Z,75.29
2023-05-09T00:39:27.882Z,75.18
2023-05-09T00:40:32.342Z,75.31
2023-05-09T00:41:36.462Z,75.25
2023-05-09T00:42:40.638Z,75.40
2023-05-09T00:43:44.927Z,75.46
2023-05-09T00:44:49.212Z,75.44
2023-05-09T00:45:53.487Z,75.62
2023-05-09T00:46:57.805Z,75.86
2023-05-09T00:48:02.101Z,75.96
2023-05-09T00:49:06.166Z,75.97
2023-05-09T00:50:10.372Z,76.13
2023-05-09T00:51:14.604Z,76.18
2023-05-09T00:52:32.923Z,76.27
2023-05-09T00:53:35.955Z,76.32
2023-05-09T00:54:40.247Z,76.28
2023-05-09T00:55:44.494Z,76.25
2023-05-09T00:56:48.670Z,76.27
2023-05-09T00:57:53.019Z,76.22
2023-05-09T00:58:57.127Z,76.25
2023-05-09T01:00:01.404Z,76.29
2023-05-09T01:01:19.855Z,76.17
2023-05-09T01:02:22.969Z,76.20
2023-05-09T01:03:27.214Z,76.18
2023-05-09T01:04:31.335Z,76.15
2023-05-09T01:05:35.573Z,76.17
2023-05-09T01:06:53.987Z,76.18
2023-05-09T01:07:57.261Z,76.12
2023-05-09T01:09:01.514Z,76.10
2023-05-09T01:10:05.789Z,75.99
2023-05-09T01:11:10.097Z,75.90
2023-05-09T01:12:14.244Z,76.00
2023-05-09T01:13:18.621Z,76.11
2023-05-09T01:14:22.699Z,76.27
2023-05-09T01:15:26.937Z,76.23
2023-05-09T01:16:31.183Z,76.28
2023-05-09T01:17:35.404Z,76.30
2023-05-09T01:18:39.639Z,76.29
2023-05-09T01:19:43.946Z,76.25
2023-05-09T01:20:48.185Z,76.30
2023-05-09T01:21:52.422Z,76.36
2023-05-09T01:22:56.720Z,76.43
2023-05-09T01:24:01.043Z,76.52
2023-05-09T01:25:05.232Z,76.54
2023-05-09T01:26:09.492Z,76.46
2023-05-09T01:27:13.883Z,76.51
2023-05-09T01:28:18.041Z,76.56
2023-05-09T01:29:22.275Z,76.65
2023-05-09T01:30:26.495Z,76.59
2023-05-09T01:31:30.957Z,76.59
2023-05-09T01:32:35.088Z,76.57
2023-05-09T01:33:39.193Z,76.50
2023-05-09T01:34:43.477Z,76.44
2023-05-09T01:35:47.632Z,76.44
2023-05-09T01:36:52.024Z,76.37
2023-05-09T01:37:56.119Z,76.37
2023-05-09T01:39:00.424Z,76.41
2023-05-09T01:40:04.707Z,76.28
2023-05-09T01:41:09.859Z,76.16
2023-05-09T01:42:13.773Z,76.31
2023-05-09T01:43:18.125Z,76.30
2023-05-09T01:44:22.238Z,76.37
2023-05-09T01:45:26.494Z,76.34
2023-05-09T01:46:30.907Z,76.51
2023-05-09T01:47:35.093Z,76.65
2023-05-09T01:48:39.320Z,76.59
2023-05-09T01:49:43.548Z,76.55
2023-05-09T01:50:47.802Z,76.50
2023-05-09T01:51:52.227Z,76.43
2023-05-09T01:52:56.485Z,76.50
2023-05-09T01:54:00.751Z,76.56
2023-05-09T01:55:05.004Z,76.60
2023-05-09T01:56:09.200Z,76.61
2023-05-09T01:57:13.438Z,76.62
2023-05-09T01:58:17.722Z,76.62
2023-05-09T01:59:22.082Z,76.72
2023-05-09T02:00:26.197Z,76.73
2023-05-09T02:01:31.398Z,76.74
2023-05-09T02:02:35.380Z,76.74
2023-05-09T02:03:40.459Z,76.70
2023-05-09T02:04:44.307Z,76.63
2023-05-09T02:05:48.492Z,76.66
2023-05-09T02:06:52.771Z,76.71
2023-05-09T02:08:00.187Z,76.73
2023-05-09T02:09:03.493Z,76.72
2023-05-09T02:10:07.838Z,76.68
2023-05-09T02:11:12.057Z,76.68
2023-05-09T02:12:16.355Z,76.61
2023-05-09T02:13:23.706Z,76.69
2023-05-09T02:14:27.172Z,76.72
2023-05-09T02:15:31.157Z,76.79
2023-05-09T02:16:35.527Z,76.68
2023-05-09T02:17:39.748Z,76.72
2023-05-09T02:18:43.942Z,76.77
2023-05-09T02:19:48.308Z,76.75
2023-05-09T02:20:52.595Z,76.79
2023-05-09T02:21:56.753Z,76.82
2023-05-09T02:23:01.100Z,76.90
2023-05-09T02:24:05.396Z,76.95
2023-05-09T02:25:09.697Z,77.04
2023-05-09T02:26:13.792Z,77.12
2023-05-09T02:27:18.092Z,77.20
2023-05-09T02:28:22.375Z,77.31
2023-05-09T02:29:26.591Z,77.40
2023-05-09T02:30:31.104Z,77.47
2023-05-09T02:31:35.263Z,77.53
2023-05-09T02:32:39.567Z,77.62
2023-05-09T02:33:43.743Z,77.71
2023-05-09T02:34:48.072Z,77.82
2023-05-09T02:35:52.361Z,77.93
2023-05-09T02:36:56.682Z,78.04
2023-05-09T02:38:00.932Z,78.08
2023-05-09T02:39:05.159Z,78.14
2023-05-09T02:40:09.425Z,78.13
2023-05-09T02:41:13.639Z,78.19
2023-05-09T02:42:17.917Z,78.21
2023-05-09T02:43:22.257Z,78.33
2023-05-09T02:44:26.463Z,78.35
2023-05-09T02:45:30.718Z,78.42
2023-05-09T02:46:35.189Z,78.47
2023-05-09T02:47:39.369Z,78.53
2023-05-09T02:48:43.601Z,78.63
2023-05-09T02:49:47.852Z,78.68
2023-05-09T02:50:52.063Z,78.70
2023-05-09T02:51:56.339Z,78.80
2023-05-09T02:53:00.599Z,78.71
2023-05-09T02:54:05.096Z,78.65
2023-05-09T02:55:09.298Z,78.61
2023-05-09T02:56:13.514Z,78.62
2023-05-09T02:57:23.874Z,78.60
2023-05-09T02:58:26.764Z,78.69
2023-05-09T02:59:31.010Z,78.79
2023-05-09T03:00:35.252Z,78.73
2023-05-09T03:01:39.729Z,78.68
2023-05-09T03:02:43.952Z,78.73
2023-05-09T03:03:48.279Z,78.77
2023-05-09T03:04:52.377Z,78.90
2023-05-09T03:05:56.636Z,78.93
2023-05-09T03:07:00.922Z,79.11
2023-05-09T03:08:05.149Z,79.16
2023-05-09T03:09:09.431Z,79.16
2023-05-09T03:10:13.690Z,79.26
2023-05-09T03:11:17.995Z,79.12
2023-05-09T03:12:22.222Z,79.13
2023-05-09T03:13:26.490Z,79.15
2023-05-09T03:14:30.749Z,79.21
2023-05-09T03:15:35.033Z,79.22
2023-05-09T03:16:39.274Z,79.08
2023-05-09T03:17:43.760Z,79.03
2023-05-09T03:18:47.772Z,78.89
2023-05-09T03:19:51.995Z,78.95
2023-05-09T03:20:56.272Z,78.88
2023-05-09T03:22:00.457Z,78.79
2023-05-09T03:23:04.830Z,78.66
2023-05-09T03:24:09.024Z,78.48
2023-05-09T03:25:13.583Z,78.57
2023-05-09T03:26:17.602Z,78.46
2023-05-09T03:27:21.794Z,78.48
2023-05-09T03:28:26.111Z,78.48
2023-05-09T03:29:30.332Z,78.38
2023-05-09T03:30:34.634Z,78.31
2023-05-09T03:31:38.866Z,78.17
2023-05-09T03:32:43.300Z,78.04
2023-05-09T03:33:47.571Z,78.06
2023-05-09T03:34:51.718Z,78.15
2023-05-09T03:35:55.994Z,78.05
2023-05-09T03:37:00.289Z,78.00
2023-05-09T03:38:04.649Z,78.06
2023-05-09T03:39:08.855Z,78.06
2023-05-09T03:40:13.105Z,78.07
2023-05-09T03:41:17.477Z,77.95
2023-05-09T03:42:21.717Z,77.96
2023-05-09T03:43:26.030Z,77.88
2023-05-09T03:44:30.190Z,77.82
2023-05-09T03:45:34.441Z,77.79
2023-05-09T03:46:38.745Z,77.71
2023-05-09T03:47:43.010Z,77.63
2023-05-09T03:48:47.203Z,77.47
2023-05-09T03:49:51.656Z,77.42
2023-05-09T03:50:55.926Z,77.39
2023-05-09T03:52:00.130Z,77.30
2023-05-09T03:53:04.420Z,77.27
2023-05-09T03:54:08.646Z,77.28
2023-05-09T03:55:13.053Z,77.25
2023-05-09T03:56:17.086Z,77.25
2023-05-09T03:57:21.394Z,77.20
2023-05-09T03:58:25.558Z,77.08
2023-05-09T03:59:29.894Z,77.01
2023-05-09T04:00:34.148Z,77.00
2023-05-09T04:01:40.069Z,76.97
2023-05-09T04:02:42.768Z,76.89
2023-05-09T04:03:47.024Z,76.88
2023-05-09T04:04:51.095Z,76.85
2023-05-09T04:05:55.585Z,76.81
2023-05-09T04:06:59.723Z,76.82
2023-05-09T04:08:04.840Z,76.74
2023-05-09T04:09:08.686Z,76.61
2023-05-09T04:10:12.971Z,76.56
2023-05-09T04:11:17.228Z,76.51
2023-05-09T04:12:21.470Z,76.48
2023-05-09T04:13:25.808Z,76.47
2023-05-09T04:14:32.982Z,76.50
2023-05-09T04:15:36.326Z,76.46
2023-05-09T04:16:40.627Z,76.40
2023-05-09T04:17:44.826Z,76.35
2023-05-09T04:18:49.080Z,76.34
2023-05-09T04:19:53.354Z,76.28
2023-05-09T04:20:57.679Z,76.30
2023-05-09T04:22:02.122Z,76.27
2023-05-09T04:23:06.074Z,76.29
2023-05-09T04:24:10.468Z,76.24
2023-05-09T04:25:14.940Z,76.16
2023-05-09T04:26:18.956Z,76.15
2023-05-09T04:27:23.285Z,76.15
2023-05-09T04:28:27.607Z,76.13
2023-05-09T04:29:31.936Z,76.10
2023-05-09T04:30:36.232Z,75.93
2023-05-09T04:31:40.485Z,75.77
2023-05-09T04:32:44.816Z,75.68
2023-05-09T04:33:49.018Z,75.68
2023-05-09T04:34:53.351Z,75.54
2023-05-09T04:35:57.555Z,75.38
2023-05-09T04:37:01.753Z,75.37
2023-05-09T04:38:06.319Z,75.38
2023-05-09T04:39:10.286Z,75.33
2023-05-09T04:40:14.555Z,75.18
2023-05-09T04:41:18.778Z,75.13
2023-05-09T04:42:23.139Z,75.08
2023-05-09T04:43:27.356Z,75.06
2023-05-09T04:44:31.636Z,75.08
2023-05-09T04:45:35.884Z,75.06
2023-05-09T04:46:40.225Z,74.94
2023-05-09T04:47:44.527Z,74.91
2023-05-09T04:48:48.700Z,74.80
2023-05-09T04:49:55.944Z,74.54
2023-05-09T04:50:59.360Z,74.41
2023-05-09T04:52:03.575Z,74.29
2023-05-09T04:53:07.916Z,74.14
2023-05-09T04:54:26.364Z,74.04
2023-05-09T04:55:29.340Z,73.90
2023-05-09T04:56:33.577Z,73.91
2023-05-09T04:57:37.849Z,73.70
2023-05-09T04:58:42.098Z,73.57
2023-05-09T04:59:46.389Z,73.50
2023-05-09T05:00:50.745Z,73.18
2023-05-09T05:01:55.136Z,73.22
2023-05-09T05:02:59.371Z,73.20
2023-05-09T05:04:03.516Z,73.27
2023-05-09T05:05:12.011Z,73.30
2023-05-09T05:06:12.178Z,73.19
2023-05-09T05:07:16.410Z,72.92
2023-05-09T05:08:20.744Z,72.85
2023-05-09T05:09:24.968Z,72.80
2023-05-09T05:10:29.374Z,72.79
2023-05-09T05:11:33.550Z,72.33
2023-05-09T05:12:37.799Z,72.13
2023-05-09T05:13:42.098Z,72.03
2023-05-09T05:14:46.367Z,71.82
2023-05-09T05:15:50.746Z,71.78
2023-05-09T05:16:54.925Z,71.87
2023-05-09T05:17:59.401Z,71.78
2023-05-09T05:19:03.573Z,71.59
2023-05-09T05:20:07.811Z,71.25
2023-05-09T05:21:12.127Z,71.21
2023-05-09T05:22:32.688Z,71.19
2023-05-09T05:23:33.558Z,70.91
2023-05-09T05:24:37.773Z,70.69
2023-05-09T05:25:42.306Z,70.72
2023-05-09T05:26:46.432Z,70.41
2023-05-09T05:27:50.668Z,70.43
2023-05-09T05:28:58.039Z,70.05
2023-05-09T05:30:01.429Z,69.72
2023-05-09T05:31:05.700Z,69.61
2023-05-09T05:32:09.946Z,69.73
2023-05-09T05:33:14.231Z,69.60
2023-05-09T05:34:18.633Z,69.52
2023-05-09T05:35:22.909Z,68.97
2023-05-09T05:36:27.186Z,68.68
2023-05-09T05:37:31.458Z,68.69
2023-05-09T05:38:35.762Z,68.21
2023-05-09T05:39:54.193Z,68.31
2023-05-09T05:40:57.542Z,68.17
2023-05-09T05:42:01.679Z,68.13
2023-05-09T05:43:05.883Z,68.14
2023-05-09T05:44:10.260Z,68.04
2023-05-09T05:45:14.870Z,67.94
2023-05-09T05:46:18.892Z,67.58
2023-05-09T05:47:23.080Z,67.51
2023-05-09T05:48:27.390Z,67.55
2023-05-09T05:49:31.681Z,67.49
2023-05-09T05:50:35.957Z,67.52
2023-05-09T05:51:40.242Z,67.61
2023-05-09T05:52:44.550Z,67.47
2023-05-09T05:53:48.914Z,67.59
2023-05-09T05:54:56.181Z,67.61
2023-05-09T05:55:59.721Z,67.61
2023-05-09T05:57:03.864Z,67.46
2023-05-09T05:58:08.191Z,66.67
2023-05-09T05:59:13.519Z,66.56
2023-05-09T06:00:16.803Z,66.28
2023-05-09T06:01:21.106Z,66.42
2023-05-09T06:02:25.603Z,66.35
2023-05-09T06:03:29.874Z,66.55
2023-05-09T06:04:34.064Z,66.69
2023-05-09T06:05:38.473Z,66.44
2023-05-09T06:06:42.742Z,65.83
2023-05-09T06:07:47.048Z,66.01
2023-05-09T06:08:51.429Z,65.91
2023-05-09T06:09:55.701Z,66.08
2023-05-09T06:11:00.058Z,66.25
2023-05-09T06:12:04.481Z,66.23
2023-05-09T06:13:08.836Z,65.94
2023-05-09T06:14:13.019Z,66.15
2023-05-09T06:15:17.541Z,65.80
2023-05-09T06:16:21.697Z,65.61
2023-05-09T06:17:26.073Z,65.65
2023-05-09T06:18:30.350Z,65.66
2023-05-09T06:19:34.629Z,65.53
2023-05-09T06:20:39.045Z,65.53
2023-05-09T06:21:43.354Z,65.57
2023-05-09T06:22:47.746Z,65.21
2023-05-09T06:24:06.637Z,65.17
2023-05-09T06:24:56.355Z,64.58
2023-05-09T06:26:00.661Z,64.37
2023-05-09T06:27:05.102Z,63.91
2023-05-09T06:28:09.533Z,63.90
2023-05-09T06:29:13.700Z,63.83
2023-05-09T06:30:26.148Z,63.85
2023-05-09T06:31:24.135Z,63.62
2023-05-09T06:32:26.684Z,63.21
2023-05-09T06:33:30.975Z,63.32
2023-05-09T06:34:35.303Z,62.66
2023-05-09T06:35:39.694Z,62.46
2023-05-09T06:36:43.993Z,62.34
2023-05-09T06:37:49.002Z,62.39
2023-05-09T06:38:52.775Z,62.47
2023-05-09T06:39:57.070Z,62.84
2023-05-09T06:41:01.502Z,63.30
2023-05-09T06:42:05.901Z,62.71
2023-05-09T06:43:10.229Z,62.30
2023-05-09T06:44:14.645Z,62.06
2023-05-09T06:45:19.067Z,62.38
2023-05-09T06:46:23.177Z,62.32
2023-05-09T06:47:27.583Z,62.31
2023-05-09T06:48:31.822Z,62.41
2023-05-09T06:49:36.244Z,62.45
2023-05-09T06:50:40.611Z,62.53
2023-05-09T06:51:44.989Z,62.13
2023-05-09T06:52:49.306Z,62.25
2023-05-09T06:53:53.728Z,61.89
2023-05-09T06:54:58.106Z,61.83
2023-05-09T06:56:02.484Z,61.42
2023-05-09T06:57:06.896Z,61.20
2023-05-09T06:58:11.237Z,61.00
2023-05-09T06:59:15.582Z,60.77
2023-05-09T07:00:19.985Z,60.40
2023-05-09T07:01:24.290Z,60.17
2023-05-09T07:02:28.839Z,59.99
2023-05-09T07:03:33.052Z,60.21
2023-05-09T07:04:37.585Z,60.32
2023-05-09T07:05:41.856Z,60.06
2023-05-09T07:06:46.331Z,60.39
2023-05-09T07:07:50.576Z,60.39
2023-05-09T07:08:55.020Z,60.51
2023-05-09T07:10:10.577Z,60.27
2023-05-09T07:11:03.721Z,59.55
2023-05-09T07:12:08.177Z,59.01
2023-05-09T07:13:12.600Z,59.30
2023-05-09T07:14:16.974Z,59.15
2023-05-09T07:15:32.842Z,59.13
2023-05-09T07:16:25.799Z,59.20
2023-05-09T07:17:30.080Z,58.98
2023-05-09T07:18:35.360Z,58.77
2023-05-09T07:19:39.375Z,58.72
2023-05-09T07:20:43.646Z,59.11
2023-05-09T07:21:48.068Z,58.72
2023-05-09T07:22:52.484Z,58.57
2023-05-09T07:23:56.753Z,58.72
2023-05-09T07:25:01.185Z,59.19
2023-05-09T07:26:05.545Z,59.29
2023-05-09T07:27:09.924Z,58.64
2023-05-09T07:28:14.376Z,58.09
2023-05-09T07:29:18.607Z,58.09
2023-05-09T07:30:23.021Z,58.37
2023-05-09T07:31:27.487Z,58.40
2023-05-09T07:32:31.826Z,58.08
2023-05-09T07:33:35.994Z,57.71
2023-05-09T07:34:40.324Z,57.68
2023-05-09T07:35:47.621Z,57.95
2023-05-09T07:36:51.163Z,57.78
2023-05-09T07:37:55.479Z,57.61
2023-05-09T07:38:59.932Z,57.28
2023-05-09T07:40:07.283Z,57.53
2023-05-09T07:41:10.805Z,57.88
2023-05-09T07:42:15.061Z,57.94
2023-05-09T07:43:19.447Z,57.92
2023-05-09T07:44:23.922Z,57.80
2023-05-09T07:45:28.197Z,57.47
2023-05-09T07:46:32.491Z,57.76
2023-05-09T07:47:37.056Z,57.86
2023-05-09T07:48:41.335Z,57.79
2023-05-09T07:49:45.603Z,57.61
2023-05-09T07:50:50.045Z,57.62
2023-05-09T07:51:54.315Z,57.33
2023-05-09T07:52:58.627Z,57.54
2023-05-09T07:54:02.921Z,57.83
2023-05-09T07:55:07.220Z,58.01
2023-05-09T07:56:11.552Z,57.53
2023-05-09T07:57:16.027Z,57.44
2023-05-09T07:58:20.320Z,57.27
2023-05-09T07:59:24.803Z,57.15
2023-05-09T08:00:29.146Z,57.69
2023-05-09T08:01:33.442Z,57.46
2023-05-09T08:02:37.991Z,57.54
2023-05-09T08:03:42.260Z,57.30
2023-05-09T08:04:46.402Z,57.02
2023-05-09T08:05:50.822Z,56.88
2023-05-09T08:06:55.174Z,56.81
2023-05-09T08:07:59.461Z,57.10
2023-05-09T08:09:03.880Z,57.15
2023-05-09T08:10:08.240Z,56.94
2023-05-09T08:11:12.588Z,57.07
2023-05-09T08:12:17.038Z,57.04
2023-05-09T08:13:21.404Z,57.28
2023-05-09T08:14:25.634Z,57.16
2023-05-09T08:15:30.054Z,56.99
2023-05-09T08:16:34.389Z,56.77
2023-05-09T08:17:38.784Z,56.44
2023-05-09T08:18:43.089Z,56.63
2023-05-09T08:19:47.706Z,56.35
2023-05-09T08:20:51.858Z,56.53
2023-05-09T08:21:56.253Z,56.63
2023-05-09T08:23:00.648Z,56.60
2023-05-09T08:24:04.990Z,56.55
2023-05-09T08:25:09.612Z,56.78
2023-05-09T08:26:13.940Z,56.53
2023-05-09T08:27:18.297Z,56.70
2023-05-09T08:28:22.668Z,56.86
2023-05-09T08:29:27.040Z,56.31
2023-05-09T08:30:31.462Z,56.12
2023-05-09T08:31:35.901Z,55.73
2023-05-09T08:32:40.311Z,55.32
2023-05-09T08:33:44.553Z,55.08
2023-05-09T08:34:48.947Z,55.09
2023-05-09T08:35:53.352Z,54.73
2023-05-09T08:37:00.560Z,54.84
2023-05-09T08:38:04.028Z,54.81
2023-05-09T08:39:08.454Z,54.86
2023-05-09T08:40:13.249Z,54.90
2023-05-09T08:41:17.092Z,54.73
2023-05-09T08:42:22.444Z,54.57
2023-05-09T08:43:25.910Z,54.77
2023-05-09T08:44:30.238Z,54.70
2023-05-09T08:45:34.728Z,54.27
2023-05-09T08:46:39.156Z,54.40
2023-05-09T08:47:43.350Z,54.81
2023-05-09T08:48:47.676Z,55.33
2023-05-09T08:49:51.985Z,55.59
2023-05-09T08:50:56.562Z,55.09
2023-05-09T08:52:00.762Z,54.58
2023-05-09T08:53:05.135Z,54.86
2023-05-09T08:54:09.569Z,55.33
2023-05-09T08:55:13.862Z,55.59
2023-05-09T08:56:18.250Z,55.52
2023-05-09T08:57:22.692Z,55.68
2023-05-09T08:58:26.925Z,55.70
2023-05-09T08:59:31.334Z,55.57
2023-05-09T09:00:35.778Z,55.32
2023-05-09T09:01:40.238Z,55.14
2023-05-09T09:02:50.676Z,54.80
2023-05-09T09:03:53.563Z,54.90
2023-05-09T09:04:57.886Z,54.29
2023-05-09T09:06:02.473Z,54.36
2023-05-09T09:07:06.715Z,54.78
2023-05-09T09:08:11.154Z,55.20
2023-05-09T09:09:15.367Z,54.92
2023-05-09T09:10:19.786Z,54.95
2023-05-09T09:11:24.102Z,54.58
2023-05-09T09:12:28.437Z,53.78
2023-05-09T09:13:32.931Z,53.54
2023-05-09T09:14:37.205Z,53.38
2023-05-09T09:15:41.527Z,53.60
2023-05-09T09:16:46.063Z,53.54
2023-05-09T09:17:50.429Z,53.49
2023-05-09T09:18:56.298Z,53.72
2023-05-09T09:19:59.266Z,53.99
2023-05-09T09:21:03.574Z,53.92
2023-05-09T09:22:08.186Z,53.42
2023-05-09T09:23:12.295Z,53.26
2023-05-09T09:24:16.769Z,52.14
2023-05-09T09:25:21.183Z,52.64
2023-05-09T09:26:25.557Z,52.37
2023-05-09T09:27:30.003Z,51.87
2023-05-09T09:28:34.341Z,50.63
2023-05-09T09:29:38.752Z,49.97
2023-05-09T09:30:42.986Z,50.44
2023-05-09T09:31:47.432Z,50.30
2023-05-09T09:32:51.802Z,50.62
2023-05-09T09:33:56.123Z,50.90
2023-05-09T09:35:00.468Z,50.71
2023-05-09T09:36:04.880Z,50.12
2023-05-09T09:37:09.195Z,49.79
2023-05-09T09:38:13.753Z,50.18
2023-05-09T09:39:17.967Z,50.58
2023-05-09T09:40:22.407Z,50.47
2023-05-09T09:41:26.700Z,50.70
2023-05-09T09:42:31.214Z,49.53
2023-05-09T09:43:41.428Z,49.51
2023-05-09T09:44:44.439Z,48.67
2023-05-09T09:45:49.004Z,49.10
2023-05-09T09:46:53.268Z,49.22
2023-05-09T09:47:57.683Z,49.46
2023-05-09T09:49:02.155Z,49.94
2023-05-09T09:50:06.457Z,50.28
2023-05-09T09:51:10.887Z,49.77
2023-05-09T09:52:15.150Z,49.10
2023-05-09T09:53:33.932Z,48.23
2023-05-09T09:54:37.117Z,48.30
2023-05-09T09:55:41.522Z,48.76
2023-05-09T09:56:45.900Z,49.49
2023-05-09T09:57:50.253Z,49.10
2023-05-09T09:58:54.534Z,48.88
2023-05-09T09:59:58.991Z,48.38
2023-05-09T10:01:03.413Z,48.35
2023-05-09T10:02:08.456Z,46.76
2023-05-09T10:03:12.151Z,45.77
2023-05-09T10:04:16.765Z,45.54
2023-05-09T10:05:20.949Z,45.37
2023-05-09T10:06:25.426Z,45.32
2023-05-09T10:07:29.804Z,45.67
2023-05-09T10:08:34.261Z,45.33
2023-05-09T10:09:38.727Z,45.52
2023-05-09T10:10:42.907Z,45.77
2023-05-09T10:11:47.365Z,45.55
2023-05-09T10:12:51.716Z,45.81
2023-05-09T10:13:56.203Z,46.02
2023-05-09T10:15:00.633Z,45.99
2023-05-09T10:16:05.053Z,46.03
2023-05-09T10:17:09.511Z,45.25
2023-05-09T10:18:13.831Z,45.24
2023-05-09T10:19:18.115Z,45.63
2023-05-09T10:20:22.403Z,45.70
2023-05-09T10:21:26.742Z,45.85
2023-05-09T10:22:31.089Z,44.89
2023-05-09T10:23:49.591Z,44.92
2023-05-09T10:24:53.395Z,45.35
2023-05-09T10:25:57.397Z,45.73
2023-05-09T10:27:01.878Z,45.79
2023-05-09T10:28:06.149Z,45.71
2023-05-09T10:29:10.552Z,45.52
2023-05-09T10:30:14.981Z,45.52
2023-05-09T10:31:19.316Z,45.35
2023-05-09T10:32:23.728Z,45.28
2023-05-09T10:33:28.116Z,44.43
2023-05-09T10:34:35.500Z,44.71
2023-05-09T10:35:39.202Z,44.94
2023-05-09T10:36:43.453Z,45.29
2023-05-09T10:37:47.950Z,45.16
2023-05-09T10:39:06.753Z,44.18
2023-05-09T10:40:09.903Z,44.32
2023-05-09T10:41:14.078Z,44.49
2023-05-09T10:42:18.423Z,43.68
2023-05-09T10:43:22.826Z,43.50
2023-05-09T10:44:27.201Z,42.81
2023-05-09T10:45:31.670Z,42.90
2023-05-09T10:46:36.237Z,43.30
2023-05-09T10:47:40.570Z,43.80
2023-05-09T10:48:45.032Z,44.40
2023-05-09T10:49:49.387Z,43.81
2023-05-09T10:50:53.756Z,43.88
2023-05-09T10:51:58.077Z,43.76
2023-05-09T10:53:02.525Z,43.56
2023-05-09T10:54:06.866Z,43.67
2023-05-09T10:55:11.477Z,44.02
2023-05-09T10:56:15.662Z,43.79
2023-05-09T10:57:20.008Z,43.44
2023-05-09T10:58:38.597Z,43.64
2023-05-09T10:59:41.867Z,43.74
2023-05-09T11:00:46.227Z,43.81
2023-05-09T11:01:50.526Z,43.38
2023-05-09T11:03:09.054Z,43.69
2023-05-09T11:04:12.150Z,44.07
2023-05-09T11:05:16.726Z,44.01
2023-05-09T11:06:20.846Z,44.37
2023-05-09T11:07:25.329Z,44.26
2023-05-09T11:08:29.779Z,44.24
2023-05-09T11:09:34.182Z,44.14
2023-05-09T11:10:38.722Z,44.42
2023-05-09T11:11:42.916Z,44.67
2023-05-09T11:12:47.425Z,45.08
2023-05-09T11:13:51.860Z,45.09
2023-05-09T11:14:56.231Z,44.98
2023-05-09T11:16:00.714Z,44.38
2023-05-09T11:17:04.989Z,44.08
2023-05-09T11:18:09.524Z,44.41
2023-05-09T11:19:13.800Z,44.59
2023-05-09T11:20:18.208Z,44.61
2023-05-09T11:21:22.713Z,44.44
2023-05-09T11:22:26.967Z,44.45
2023-05-09T11:23:31.433Z,45.20
2023-05-09T11:24:35.758Z,45.52
2023-05-09T11:25:40.185Z,45.51
2023-05-09T11:26:44.748Z,45.84
2023-05-09T11:27:49.030Z,45.52
2023-05-09T11:28:53.501Z,44.69
2023-05-09T11:29:57.807Z,44.18
2023-05-09T11:31:16.290Z,43.74
2023-05-09T11:32:19.896Z,44.11
2023-05-09T11:33:24.221Z,43.97
2023-05-09T11:34:28.556Z,43.82
2023-05-09T11:35:33.004Z,44.45
2023-05-09T11:36:37.337Z,43.86
2023-05-09T11:37:41.837Z,43.01
2023-05-09T11:38:46.344Z,43.17
2023-05-09T11:39:50.774Z,42.18
2023-05-09T11:40:55.132Z,42.78
2023-05-09T11:41:59.715Z,42.82
2023-05-09T11:43:03.921Z,42.98
2023-05-09T11:44:08.347Z,42.74
2023-05-09T11:45:13.003Z,42.05
2023-05-09T11:46:17.311Z,41.62
2023-05-09T11:47:21.605Z,41.01
2023-05-09T11:48:25.967Z,40.97
2023-05-09T11:49:30.354Z,41.41
2023-05-09T11:50:34.799Z,41.49
2023-05-09T11:51:39.272Z,41.41
2023-05-09T11:52:43.705Z,40.66
2023-05-09T11:54:02.057Z,41.14
2023-05-09T11:55:05.261Z,41.31
2023-05-09T11:56:09.709Z,40.95
2023-05-09T11:57:14.268Z,41.06
2023-05-09T11:58:18.475Z,40.79
2023-05-09T11:59:22.858Z,41.07
2023-05-09T12:00:27.424Z,40.95
2023-05-09T12:01:31.908Z,40.33
2023-05-09T12:02:45.378Z,41.09
2023-05-09T12:03:48.114Z,40.38
2023-05-09T12:04:52.515Z,39.99
2023-05-09T12:05:56.987Z,40.22
2023-05-09T12:07:01.455Z,40.40
2023-05-09T12:08:05.786Z,40.81
2023-05-09T12:09:10.350Z,40.61
2023-05-09T12:10:14.751Z,40.54
2023-05-09T12:11:19.071Z,41.30
2023-05-09T12:12:23.615Z,40.87
2023-05-09T12:13:28.140Z,40.03
2023-05-09T12:14:38.496Z,39.98
2023-05-09T12:15:42.596Z,39.79
2023-05-09T12:16:46.548Z,39.92
2023-05-09T12:17:52.083Z,40.12
2023-05-09T12:18:55.540Z,40.30
2023-05-09T12:20:00.003Z,40.79
2023-05-09T12:21:04.447Z,40.71
2023-05-09T12:22:08.838Z,40.72
2023-05-09T12:23:13.215Z,40.49
2023-05-09T12:24:17.706Z,40.12
2023-05-09T12:25:22.290Z,40.86
2023-05-09T12:26:26.584Z,41.24
2023-05-09T12:27:31.097Z,41.46
2023-05-09T12:28:38.383Z,41.35
2023-05-09T12:29:41.841Z,40.98
2023-05-09T12:30:46.254Z,40.26
2023-05-09T12:31:50.698Z,40.34
2023-05-09T12:32:55.184Z,40.63
2023-05-09T12:33:59.551Z,40.67
2023-05-09T12:35:10.214Z,40.64
2023-05-09T12:36:13.238Z,40.67
2023-05-09T12:37:23.719Z,39.78
2023-05-09T12:38:26.822Z,40.33
2023-05-09T12:39:31.164Z,39.72
2023-05-09T12:40:41.541Z,39.08
2023-05-09T12:41:57.525Z,39.33
2023-05-09T12:42:49.076Z,40.19
2023-05-09T12:43:53.343Z,40.55
2023-05-09T12:44:57.799Z,40.02
2023-05-09T12:46:16.266Z,40.02
2023-05-09T12:47:19.700Z,40.29
2023-05-09T12:48:23.999Z,40.26
2023-05-09T12:49:42.563Z,40.52
2023-05-09T12:50:46.210Z,39.96
2023-05-09T12:51:50.446Z,40.18
2023-05-09T12:53:02.568Z,40.80
2023-05-09T12:53:59.188Z,41.03
2023-05-09T12:55:03.590Z,40.81
2023-05-09T12:56:07.961Z,40.27
2023-05-09T12:57:12.363Z,40.73
2023-05-09T12:58:16.947Z,40.81
2023-05-09T12:59:21.228Z,40.78
2023-05-09T13:00:25.604Z,41.16
2023-05-09T13:01:44.111Z,40.39
2023-05-09T13:03:01.690Z,40.70
2023-05-09T13:04:04.876Z,40.79
2023-05-09T13:05:15.474Z,40.66
2023-05-09T13:06:18.352Z,41.00
2023-05-09T13:07:22.817Z,40.79
2023-05-09T13:08:27.296Z,40.66
2023-05-09T13:09:31.725Z,40.81
2023-05-09T13:10:36.202Z,40.95
2023-05-09T13:11:40.570Z,40.98
2023-05-09T13:12:45.004Z,41.19
2023-05-09T13:13:49.500Z,41.40
2023-05-09T13:14:53.923Z,41.64
2023-05-09T13:16:01.247Z,41.61
2023-05-09T13:17:04.909Z,42.18
2023-05-09T13:18:09.196Z,42.46
2023-05-09T13:19:13.521Z,42.30
2023-05-09T13:20:18.405Z,42.32
2023-05-09T13:21:22.288Z,42.45
2023-05-09T13:22:26.839Z,42.82
2023-05-09T13:23:31.270Z,42.53
2023-05-09T13:24:35.710Z,42.54
2023-05-09T13:25:40.113Z,41.77
2023-05-09T13:26:44.610Z,41.62
2023-05-09T13:27:48.921Z,41.92
2023-05-09T13:28:53.362Z,42.05
2023-05-09T13:29:57.853Z,42.37
2023-05-09T13:31:02.313Z,42.42
2023-05-09T13:32:06.681Z,42.24
2023-05-09T13:33:24.436Z,42.62
2023-05-09T13:34:15.584Z,42.61
2023-05-09T13:35:19.940Z,42.42
2023-05-09T13:36:24.429Z,42.83
2023-05-09T13:37:28.933Z,43.15
2023-05-09T13:38:33.217Z,42.92
2023-05-09T13:39:37.717Z,43.16
2023-05-09T13:40:42.052Z,43.21
2023-05-09T13:41:46.541Z,42.98
2023-05-09T13:42:51.001Z,43.46
2023-05-09T13:43:55.303Z,43.62
2023-05-09T13:44:59.756Z,43.20
2023-05-09T13:46:04.091Z,43.32
2023-05-09T13:47:08.441Z,43.38
2023-05-09T13:48:26.987Z,43.17
2023-05-09T13:49:30.387Z,42.38
2023-05-09T13:50:34.699Z,42.47
2023-05-09T13:51:39.043Z,42.21
2023-05-09T13:52:43.406Z,42.17
2023-05-09T13:53:53.958Z,42.52